createdAt,value
2022-10-04T00:00:00.504Z,2.27
2022-10-04T00:02:34.223Z,2.47
2022-10-04T00:05:08.266Z,2.87
2022-10-04T00:07:44.179Z,2.97
2022-10-04T00:10:21.154Z,3.40
2022-10-04T00:12:56.981Z,2.63
2022-10-04T00:15:28.461Z,3.10
2022-10-04T00:18:20.865Z,3.00
2022-10-04T00:21:02.348Z,2.87
2022-10-04T00:23:47.313Z,2.80
2022-10-04T00:27:05.273Z,2.80
2022-10-04T00:29:37.436Z,2.70
2022-10-04T00:32:29.406Z,3.33
2022-10-04T00:34:57.990Z,2.43
2022-10-04T00:37:27.385Z,2.53
2022-10-04T00:40:12.597Z,3.27
2022-10-04T00:42:57.917Z,2.90
2022-10-04T00:45:37.028Z,3.30
2022-10-04T00:48:35.898Z,3.97
2022-10-04T00:51:14.655Z,3.13
2022-10-04T00:53:54.510Z,3.00
2022-10-04T00:56:34.002Z,2.40
2022-10-04T00:59:35.657Z,3.50
2022-10-04T01:02:14.328Z,3.60
2022-10-04T01:04:48.727Z,3.33
2022-10-04T01:07:26.107Z,2.93
2022-10-04T01:10:00.161Z,3.27
2022-10-04T01:12:43.920Z,3.40
2022-10-04T01:15:23.413Z,3.00
2022-10-04T01:18:33.282Z,2.97
2022-10-04T01:21:07.208Z,2.90
2022-10-04T01:23:43.234Z,3.40
2022-10-04T01:26:44.564Z,3.53
2022-10-04T01:29:16.646Z,2.77
2022-10-04T01:31:48.150Z,3.83
2022-10-04T01:34:18.312Z,4.00
2022-10-04T01:36:47.324Z,3.80
2022-10-04T01:39:19.514Z,3.80
2022-10-04T01:41:54.360Z,3.60
2022-10-04T01:44:30.126Z,4.03
2022-10-04T01:47:04.029Z,3.60
2022-10-04T01:49:36.624Z,3.30
2022-10-04T01:52:14.961Z,3.83
2022-10-04T01:54:48.866Z,3.30
2022-10-04T01:57:21.207Z,3.83
2022-10-04T01:59:57.578Z,3.57
2022-10-04T02:02:36.180Z,3.67
2022-10-04T02:05:10.617Z,4.00
2022-10-04T02:07:41.626Z,4.03
2022-10-04T02:10:18.602Z,3.50
2022-10-04T02:12:50.189Z,3.53
2022-10-04T02:15:22.306Z,3.60
2022-10-04T02:17:50.513Z,3.77
2022-10-04T02:20:22.158Z,3.70
2022-10-04T02:22:59.203Z,3.93
2022-10-04T02:25:28.040Z,4.10
2022-10-04T02:27:56.765Z,3.70
2022-10-04T02:30:25.079Z,3.63
2022-10-04T02:33:00.506Z,3.50
2022-10-04T02:35:35.868Z,4.00
2022-10-04T02:38:17.248Z,3.50
2022-10-04T02:40:58.132Z,3.83
2022-10-04T02:43:34.647Z,3.33
2022-10-04T02:46:12.042Z,3.70
2022-10-04T02:48:47.234Z,3.53
2022-10-04T02:51:26.507Z,3.57
2022-10-04T02:54:05.028Z,3.60
2022-10-04T02:56:36.366Z,3.23
2022-10-04T02:59:05.778Z,4.00
2022-10-04T03:01:52.773Z,3.90
2022-10-04T03:04:25.460Z,3.87
2022-10-04T03:06:55.177Z,3.87
2022-10-04T03:09:29.521Z,4.10
2022-10-04T03:12:00.086Z,3.40
2022-10-04T03:14:29.378Z,3.50
2022-10-04T03:17:01.027Z,3.70
2022-10-04T03:19:32.339Z,4.10
2022-10-04T03:22:04.801Z,4.40
2022-10-04T03:24:37.696Z,4.03
2022-10-04T03:27:14.310Z,3.73
2022-10-04T03:29:43.267Z,3.57
2022-10-04T03:32:15.389Z,3.70
2022-10-04T03:34:53.473Z,4.80
2022-10-04T03:37:21.547Z,3.90
2022-10-04T03:39:52.999Z,4.20
2022-10-04T03:42:25.693Z,3.77
2022-10-04T03:45:00.086Z,3.97
2022-10-04T03:47:32.681Z,4.33
2022-10-04T03:50:13.077Z,3.90
2022-10-04T03:52:48.431Z,5.00
2022-10-04T03:55:19.854Z,4.87
2022-10-04T03:57:48.721Z,4.80
2022-10-04T04:00:18.669Z,4.60
2022-10-04T04:02:52.290Z,3.97
2022-10-04T04:05:25.851Z,4.90
2022-10-04T04:08:06.882Z,4.33
2022-10-04T04:10:39.212Z,4.90
2022-10-04T04:13:24.086Z,4.50
2022-10-04T04:15:53.781Z,5.13
2022-10-04T04:18:24.551Z,3.93
2022-10-04T04:20:59.333Z,5.23
2022-10-04T04:23:32.901Z,4.50
2022-10-04T04:26:16.794Z,5.43
2022-10-04T04:28:50.968Z,5.30
2022-10-04T04:31:24.150Z,4.50
2022-10-04T04:34:00.292Z,5.23
2022-10-04T04:36:30.156Z,6.07
2022-10-04T04:39:27.661Z,5.30
2022-10-04T04:41:55.295Z,5.50
2022-10-04T04:44:24.818Z,6.20
2022-10-04T04:46:53.647Z,5.93
2022-10-04T04:49:21.307Z,5.97
2022-10-04T04:51:52.422Z,5.50
2022-10-04T04:54:24.018Z,5.87
2022-10-04T04:56:54.896Z,6.07
2022-10-04T04:59:27.642Z,5.90
2022-10-04T05:01:54.955Z,5.50
2022-10-04T05:04:23.949Z,5.77
2022-10-04T05:07:03.740Z,5.97
2022-10-04T05:09:34.283Z,6.23
2022-10-04T05:12:15.518Z,6.80
2022-10-04T05:14:52.101Z,6.13
2022-10-04T05:17:24.380Z,6.20
2022-10-04T05:19:56.072Z,6.57
2022-10-04T05:22:26.986Z,5.80
2022-10-04T05:25:00.015Z,7.10
2022-10-04T05:27:35.637Z,6.70
2022-10-04T05:30:13.741Z,6.40
2022-10-04T05:32:57.970Z,6.83
2022-10-04T05:35:28.458Z,6.70
2022-10-04T05:38:06.060Z,7.13
2022-10-04T05:40:46.634Z,7.10
2022-10-04T05:43:35.474Z,6.57
2022-10-04T05:46:25.567Z,6.80
2022-10-04T05:48:56.990Z,7.87
2022-10-04T05:51:28.198Z,6.63
2022-10-04T05:54:11.546Z,7.13
2022-10-04T05:57:22.144Z,7.10
2022-10-04T06:00:11.125Z,7.20
2022-10-04T06:03:31.631Z,7.97
2022-10-04T06:06:11.916Z,7.70
2022-10-04T06:08:55.744Z,8.13
2022-10-04T06:11:41.073Z,7.50
2022-10-04T06:14:48.322Z,7.23
2022-10-04T06:17:53.053Z,7.77
2022-10-04T06:21:10.018Z,7.30
2022-10-04T06:23:48.963Z,7.27
2022-10-04T06:26:25.001Z,8.10
2022-10-04T06:29:00.363Z,7.90
2022-10-04T06:32:14.933Z,8.43
2022-10-04T06:35:35.053Z,8.70
2022-10-04T06:39:04.409Z,7.33
2022-10-04T06:42:11.856Z,7.83
2022-10-04T06:45:28.067Z,8.10
2022-10-04T06:48:22.200Z,8.07
2022-10-04T06:50:56.031Z,8.60
2022-10-04T06:53:40.274Z,8.30
2022-10-04T06:56:45.087Z,8.00
2022-10-04T06:59:40.268Z,8.57
2022-10-04T07:02:18.019Z,7.57
2022-10-04T07:05:08.239Z,7.73
2022-10-04T07:07:40.428Z,6.83
2022-10-04T07:10:32.685Z,7.83
2022-10-04T07:13:34.613Z,7.00
2022-10-04T07:16:33.005Z,7.37
2022-10-04T07:19:26.678Z,7.60
2022-10-04T07:22:17.942Z,6.70
2022-10-04T07:25:04.230Z,7.93
2022-10-04T07:28:17.854Z,7.23
2022-10-04T07:30:56.037Z,6.87
2022-10-04T07:33:38.568Z,6.23
2022-10-04T07:36:12.136Z,6.30
2022-10-04T07:38:50.550Z,5.37
2022-10-04T07:41:28.663Z,6.03
2022-10-04T07:44:06.523Z,6.60
2022-10-04T07:47:00.699Z,6.40
2022-10-04T07:49:31.456Z,6.30
2022-10-04T07:52:26.177Z,6.90
2022-10-04T07:55:07.917Z,6.83
2022-10-04T07:57:50.531Z,5.87
2022-10-04T08:00:45.960Z,5.97
2022-10-04T08:03:52.994Z,5.80
2022-10-04T08:06:52.597Z,5.90
2022-10-04T08:10:27.178Z,5.37
2022-10-04T08:13:23.940Z,5.57
2022-10-04T08:16:30.088Z,5.30
2022-10-04T08:19:29.678Z,5.20
2022-10-04T08:22:30.034Z,4.97
2022-10-04T08:25:16.738Z,4.93
2022-10-04T08:28:18.220Z,4.73
2022-10-04T08:31:09.320Z,5.50
2022-10-04T08:34:47.618Z,5.10
2022-10-04T08:37:53.992Z,4.73
2022-10-04T08:41:27.802Z,4.73
2022-10-04T08:44:47.287Z,4.83
2022-10-04T08:48:38.798Z,4.73
2022-10-04T08:51:58.489Z,5.10
2022-10-04T08:55:35.201Z,4.60
2022-10-04T08:58:41.275Z,4.63
2022-10-04T09:01:56.948Z,3.90
2022-10-04T09:05:09.049Z,4.20
2022-10-04T09:08:28.501Z,4.13
2022-10-04T09:11:23.136Z,3.77
2022-10-04T09:14:23.509Z,4.13
2022-10-04T09:17:18.574Z,4.07
2022-10-04T09:20:26.320Z,4.00
2022-10-04T09:23:06.485Z,4.07
2022-10-04T09:25:56.437Z,4.13
2022-10-04T09:29:11.423Z,4.13
2022-10-04T09:32:41.689Z,4.70
2022-10-04T09:35:39.611Z,3.77
2022-10-04T09:38:44.566Z,3.50
2022-10-04T09:41:58.449Z,4.10
2022-10-04T09:45:07.547Z,3.87
2022-10-04T09:47:45.788Z,3.80
2022-10-04T09:51:36.359Z,4.00
2022-10-04T09:54:51.619Z,3.70
2022-10-04T09:57:34.352Z,3.37
2022-10-04T10:00:25.292Z,2.70
2022-10-04T10:04:05.028Z,3.23
2022-10-04T10:07:23.767Z,3.33
2022-10-04T10:10:33.802Z,2.80
2022-10-04T10:13:43.371Z,3.07
2022-10-04T10:16:33.859Z,3.90
2022-10-04T10:19:30.446Z,2.95
2022-10-04T10:22:26.845Z,3.77
2022-10-04T10:25:31.381Z,3.27
2022-10-04T10:28:29.429Z,3.13
2022-10-04T10:31:28.203Z,3.20
2022-10-04T10:34:53.789Z,3.83
2022-10-04T10:37:43.908Z,3.77
2022-10-04T10:40:44.257Z,3.80
2022-10-04T10:43:39.270Z,2.93
2022-10-04T10:46:44.009Z,4.10
2022-10-04T10:49:49.119Z,3.97
2022-10-04T10:53:31.394Z,3.60
2022-10-04T10:56:57.690Z,3.30
2022-10-04T11:00:08.052Z,2.83
2022-10-04T11:03:25.483Z,2.63
2022-10-04T11:06:35.714Z,2.53
2022-10-04T11:09:43.542Z,2.50
2022-10-04T11:12:55.002Z,2.70
2022-10-04T11:16:04.076Z,2.63
2022-10-04T11:19:36.137Z,2.67
2022-10-04T11:23:02.019Z,3.17
2022-10-04T11:26:09.574Z,2.93
2022-10-04T11:29:00.818Z,2.60
2022-10-04T11:32:25.987Z,2.97
2022-10-04T11:35:51.341Z,3.40
2022-10-04T11:38:48.834Z,3.03
2022-10-04T11:41:34.525Z,3.70
2022-10-04T11:45:00.438Z,3.50
2022-10-04T11:47:41.564Z,3.65
2022-10-04T11:50:40.993Z,3.30
2022-10-04T11:54:08.992Z,2.53
2022-10-04T11:57:15.437Z,3.40
2022-10-04T12:00:00.190Z,3.00
2022-10-04T12:03:28.309Z,3.47
2022-10-04T12:06:35.061Z,3.47
2022-10-04T12:09:19.881Z,3.33
2022-10-04T12:12:37.049Z,3.37
2022-10-04T12:15:41.919Z,3.30
2022-10-04T12:18:33.047Z,4.00
2022-10-04T12:21:50.495Z,3.83
2022-10-04T12:25:01.854Z,3.27
2022-10-04T12:28:19.966Z,3.07
2022-10-04T12:31:12.029Z,3.40
2022-10-04T12:33:54.116Z,4.03
2022-10-04T12:36:49.850Z,3.77
2022-10-04T12:39:38.778Z,3.17
2022-10-04T12:42:32.417Z,4.30
2022-10-04T12:45:42.007Z,4.03
2022-10-04T12:48:27.667Z,3.53
2022-10-04T12:51:10.258Z,3.53
2022-10-04T12:53:54.534Z,3.87
2022-10-04T12:56:46.096Z,3.60
2022-10-04T12:59:36.157Z,3.90
2022-10-04T13:02:24.845Z,4.20
2022-10-04T13:05:02.607Z,3.63
2022-10-04T13:08:06.740Z,4.33
2022-10-04T13:10:55.415Z,3.43
2022-10-04T13:13:55.170Z,3.43
2022-10-04T13:19:50.439Z,2.93
2022-10-04T13:22:56.528Z,3.03
2022-10-04T13:26:03.984Z,3.13
2022-10-04T13:28:43.654Z,3.40
2022-10-04T13:31:24.542Z,2.90
2022-10-04T13:34:08.105Z,3.30
2022-10-04T13:37:00.654Z,3.20
2022-10-04T13:39:57.977Z,3.03
2022-10-04T13:43:05.082Z,3.40
2022-10-04T13:45:53.276Z,3.03
2022-10-04T13:48:34.639Z,2.83
2022-10-04T13:52:16.973Z,3.20
2022-10-04T13:55:23.941Z,3.20
2022-10-04T13:57:59.435Z,2.90
2022-10-04T14:00:57.109Z,3.07
2022-10-04T14:03:50.172Z,2.40
2022-10-04T14:07:34.558Z,2.93
2022-10-04T14:10:34.563Z,2.60
2022-10-04T14:13:47.362Z,2.63
2022-10-04T14:17:07.294Z,2.20
2022-10-04T14:20:30.282Z,3.17
2022-10-04T14:23:48.344Z,2.60
2022-10-04T14:27:16.560Z,3.37
2022-10-04T14:30:08.067Z,2.33
2022-10-04T14:33:35.252Z,2.83
2022-10-04T14:36:40.962Z,2.90
2022-10-04T14:39:53.560Z,2.73
2022-10-04T14:43:15.285Z,2.93
2022-10-04T14:46:07.068Z,2.83
2022-10-04T14:49:08.043Z,2.97
2022-10-04T14:51:55.189Z,2.53
2022-10-04T14:54:42.216Z,2.57
2022-10-04T14:57:20.138Z,2.80
2022-10-04T15:00:11.483Z,2.53
2022-10-04T15:03:16.120Z,2.87
2022-10-04T15:06:19.806Z,3.50
2022-10-04T15:09:13.920Z,2.97
2022-10-04T15:15:24.567Z,2.70
2022-10-04T15:18:04.131Z,3.10
2022-10-04T15:20:47.408Z,2.97
2022-10-04T15:23:29.469Z,3.03
2022-10-04T15:26:05.131Z,3.20
2022-10-04T15:28:53.591Z,2.70
2022-10-04T15:31:33.806Z,3.07
2022-10-04T15:34:22.494Z,2.93
2022-10-04T15:37:09.854Z,3.03
2022-10-04T15:40:03.874Z,2.60
2022-10-04T15:42:35.980Z,3.10
2022-10-04T15:45:48.451Z,2.90
2022-10-04T15:49:12.432Z,2.93
2022-10-04T15:52:06.394Z,3.10
2022-10-04T15:55:22.251Z,3.33
2022-10-04T15:58:50.610Z,3.10
2022-10-04T16:01:41.249Z,2.77
2022-10-04T16:04:57.610Z,2.50
2022-10-04T16:08:05.285Z,2.97
2022-10-04T16:11:06.535Z,3.10
2022-10-04T16:13:58.621Z,3.43
2022-10-04T16:17:06.904Z,3.17
2022-10-04T16:20:24.049Z,2.97
2022-10-04T16:23:28.132Z,3.60
2022-10-04T16:25:57.722Z,2.40
2022-10-04T16:29:11.724Z,2.87
2022-10-04T16:31:52.660Z,3.23
2022-10-04T16:34:57.497Z,3.43
2022-10-04T16:37:42.002Z,3.23
2022-10-04T16:40:41.255Z,2.83
2022-10-04T16:43:25.314Z,3.10
2022-10-04T16:46:17.037Z,3.60
2022-10-04T16:48:56.152Z,3.00
2022-10-04T16:52:19.221Z,3.23
2022-10-04T16:55:25.881Z,4.23
2022-10-04T16:58:42.045Z,3.93
2022-10-04T17:02:12.827Z,3.53
2022-10-04T17:05:22.768Z,3.47
2022-10-04T17:08:45.975Z,3.77
2022-10-04T17:11:35.800Z,3.97
2022-10-04T17:14:37.747Z,4.13
2022-10-04T17:17:21.634Z,3.80
2022-10-04T17:19:54.499Z,3.93
2022-10-04T17:22:40.015Z,4.10
2022-10-04T17:25:31.147Z,3.70
2022-10-04T17:28:20.191Z,3.73
2022-10-04T17:30:57.427Z,3.47
2022-10-04T17:33:43.505Z,4.20
2022-10-04T17:36:36.261Z,4.17
2022-10-04T17:39:22.160Z,4.20
2022-10-04T17:42:12.080Z,4.17
2022-10-04T17:45:08.024Z,4.43
2022-10-04T17:48:00.485Z,4.37
2022-10-04T17:50:56.172Z,4.53
2022-10-04T17:53:49.200Z,4.40
2022-10-04T17:56:33.579Z,4.40
2022-10-04T17:59:12.446Z,4.17
2022-10-04T18:01:46.419Z,3.77
2022-10-04T18:04:23.563Z,4.67
2022-10-04T18:06:58.659Z,4.60
2022-10-04T18:09:35.711Z,4.40
2022-10-04T18:12:12.612Z,5.23
2022-10-04T18:14:58.175Z,4.87
2022-10-04T18:17:35.915Z,5.00
2022-10-04T18:20:27.980Z,4.60
2022-10-04T18:23:16.642Z,5.83
2022-10-04T18:25:45.795Z,5.43
2022-10-04T18:28:21.731Z,5.00
2022-10-04T18:30:59.149Z,4.47
2022-10-04T18:33:49.914Z,4.43
2022-10-04T18:36:19.681Z,4.40
2022-10-04T18:39:03.643Z,4.83
2022-10-04T18:41:50.163Z,5.20
2022-10-04T18:44:21.577Z,5.00
2022-10-04T18:46:55.877Z,4.53
2022-10-04T18:49:29.398Z,4.83
2022-10-04T18:57:01.491Z,4.77
2022-10-04T19:00:19.971Z,4.80
2022-10-04T19:03:00.733Z,4.47
2022-10-04T19:05:40.376Z,5.03
2022-10-04T19:08:22.694Z,5.13
2022-10-04T19:10:58.092Z,4.97
2022-10-04T19:13:39.834Z,5.30
2022-10-04T19:16:32.676Z,5.10
2022-10-04T19:19:27.208Z,5.13
2022-10-04T19:22:03.653Z,4.87
2022-10-04T19:25:15.319Z,5.13
2022-10-04T19:27:49.326Z,5.00
2022-10-04T19:30:21.595Z,5.37
2022-10-04T19:33:06.886Z,5.23
2022-10-04T19:36:09.992Z,4.50
2022-10-04T19:38:57.578Z,5.33
2022-10-04T19:41:51.449Z,4.93
2022-10-04T19:44:52.169Z,5.20
2022-10-04T19:47:38.862Z,5.33
2022-10-04T19:50:21.151Z,5.77
2022-10-04T19:52:53.663Z,5.13
2022-10-04T19:55:42.117Z,5.33
2022-10-04T19:58:30.608Z,5.57
2022-10-04T20:00:58.430Z,6.23
2022-10-04T20:03:25.986Z,5.60
2022-10-04T20:05:55.093Z,5.47
2022-10-04T20:08:52.643Z,6.57
2022-10-04T20:11:26.226Z,6.10
2022-10-04T20:14:54.933Z,5.33
2022-10-04T20:17:33.641Z,6.07
2022-10-04T20:20:01.811Z,6.00
2022-10-04T20:22:45.854Z,5.30
2022-10-04T20:25:52.137Z,5.13
2022-10-04T20:28:41.771Z,5.53
2022-10-04T20:31:12.139Z,5.63
2022-10-04T20:33:48.301Z,5.10
2022-10-04T20:36:51.818Z,5.43
2022-10-04T20:40:01.219Z,5.67
2022-10-04T20:42:33.445Z,4.90
2022-10-04T20:45:24.618Z,5.60
2022-10-04T20:47:54.888Z,5.20
2022-10-04T20:50:35.143Z,5.43
2022-10-04T20:53:15.061Z,4.73
2022-10-04T20:55:44.258Z,5.47
2022-10-04T20:58:35.920Z,5.70
2022-10-04T21:01:37.870Z,5.53
2022-10-04T21:04:15.304Z,5.10
2022-10-04T21:06:52.499Z,5.93
2022-10-04T21:09:24.022Z,5.50
2022-10-04T21:11:53.655Z,5.67
2022-10-04T21:14:24.347Z,5.70
2022-10-04T21:16:57.561Z,5.07
2022-10-04T21:19:52.691Z,5.00
2022-10-04T21:22:35.089Z,4.93
2022-10-04T21:25:25.845Z,5.90
2022-10-04T21:27:53.201Z,5.70
2022-10-04T21:30:20.598Z,5.67
2022-10-04T21:32:49.385Z,5.47
2022-10-04T21:35:16.696Z,5.43
2022-10-04T21:37:44.050Z,5.13
2022-10-04T21:40:13.707Z,5.20
2022-10-04T21:42:40.946Z,5.13
2022-10-04T21:45:09.201Z,5.60
2022-10-04T21:47:37.203Z,5.80
2022-10-04T21:50:06.860Z,5.37
2022-10-04T21:52:34.136Z,4.90
2022-10-04T21:55:01.414Z,5.67
2022-10-04T21:57:33.223Z,4.90
2022-10-04T22:00:02.856Z,4.90
2022-10-04T22:02:30.232Z,5.60
2022-10-04T22:04:57.522Z,5.53
2022-10-04T22:07:26.199Z,5.67
2022-10-04T22:09:53.468Z,5.73
2022-10-04T22:12:20.696Z,5.23
2022-10-04T22:14:48.056Z,5.77
2022-10-04T22:17:15.298Z,5.70
2022-10-04T22:19:42.580Z,4.77
2022-10-04T22:22:15.086Z,5.20
2022-10-04T22:24:44.121Z,5.63
2022-10-04T22:27:15.193Z,5.33
2022-10-04T22:29:42.615Z,5.13
2022-10-04T22:32:17.721Z,5.00
2022-10-04T22:34:45.170Z,5.63
2022-10-04T22:37:12.958Z,5.90
2022-10-04T22:39:40.368Z,5.63
2022-10-04T22:42:14.622Z,5.57
2022-10-04T22:44:42.207Z,5.20
2022-10-04T22:47:13.812Z,5.67
2022-10-04T22:49:44.266Z,5.77
2022-10-04T22:52:17.426Z,5.80
2022-10-04T22:54:47.129Z,5.80
2022-10-04T22:57:17.725Z,6.20
2022-10-04T22:59:48.840Z,5.80
2022-10-04T23:02:19.918Z,6.40
2022-10-04T23:04:53.767Z,6.30
2022-10-04T23:07:22.047Z,5.83
2022-10-04T23:09:49.993Z,5.73
2022-10-04T23:12:18.651Z,5.80
2022-10-04T23:14:45.957Z,6.03
2022-10-04T23:17:23.348Z,6.07
2022-10-04T23:19:53.072Z,6.57
2022-10-04T23:22:27.643Z,5.87
2022-10-04T23:24:55.900Z,6.43
2022-10-04T23:27:24.790Z,6.23
2022-10-04T23:30:00.825Z,6.50
2022-10-04T23:32:28.372Z,5.80
2022-10-04T23:34:57.071Z,5.70
2022-10-04T23:37:30.559Z,6.40
2022-10-04T23:39:58.216Z,5.73
2022-10-04T23:42:32.145Z,5.83
2022-10-04T23:45:02.026Z,6.30
2022-10-04T23:47:35.917Z,6.43
2022-10-04T23:50:19.636Z,6.40
2022-10-04T23:52:47.174Z,6.50
2022-10-04T23:55:19.266Z,6.57
2022-10-04T23:57:48.313Z,6.60
